Ludlow, Maine
Current Conditions -  °F | °C
As of 1:53 AM on Thursday 23 Oct 2014 (Local Time) from KHUL Reporting Station
Light Rain Light Rain  
Wind Chill: 38°   Ceiling: 1700
Heat Index: 44°   Visibility: 7mi
Dew Point: 41°   Wind: 12mph
Humidity: 89%   Direction: 40°NE
Pressure: 30.2"   Gusts: NA
Location:  46.1163°N, 67.9329°W
Report Text: KHUL 230553Z AUTO 04010KT 7SM -RA BKN017 OVC023 07/05 A3020 RMK AO2 SLP228 6//// T00670050 10067 20061 56014 PNO $
Loading
Personal Weather Stations






























Interactive Weather Map
Tropical Storm Tracking
New forecast layout! Learn more

10-Day Weather Forecast

Advertisements
Track Severe Weather on mobile